Glendale, Mississippi
Current Conditions -  °F | °C
As of 2:53 PM on Thursday 20 Nov 2014 (Local Time) from KHBG Reporting Station
Broken Clouds Broken Clouds  
Wind Chill: 68°   Ceiling: 6500
Heat Index: 68°   Visibility: 10mi
Dew Point: 43°   Wind: 5mph
Humidity: 40%   Direction: NA
Pressure: 30.19"   Gusts: NA
Location:  31.1996°N, 89.2694°W
Report Text: KHBG 202053Z AUTO VRB04KT 10SM BKN065 20/06 A3019 RMK AO2 SLP221 T02000061 56020
Loading
Personal Weather Stations






























Interactive Weather Map New forecast layout! Learn more

10-Day Weather Forecast

Advertisements
Track Severe Weather on mobile